createdAt,value
2022-12-18T00:00:22.326Z,-12.69
2022-12-18T00:01:22.421Z,-12.69
2022-12-18T00:02:22.332Z,-12.68
2022-12-18T00:03:22.417Z,-12.68
2022-12-18T00:04:22.525Z,-12.59
2022-12-18T00:05:22.335Z,-12.54
2022-12-18T00:06:22.532Z,-12.51
2022-12-18T00:07:22.372Z,-12.47
2022-12-18T00:08:22.331Z,-12.42
2022-12-18T00:09:25.627Z,-12.4
2022-12-18T00:10:23.598Z,-12.4
2022-12-18T00:11:22.949Z,-12.42
2022-12-18T00:12:22.465Z,-12.43
2022-12-18T00:13:22.749Z,-12.45
2022-12-18T00:14:22.599Z,-12.48
2022-12-18T00:15:22.489Z,-12.52
2022-12-18T00:16:22.841Z,-12.55
2022-12-18T00:17:22.651Z,-12.56
2022-12-18T00:18:22.333Z,-12.57
2022-12-18T00:19:22.596Z,-12.6
2022-12-18T00:20:22.827Z,-12.62
2022-12-18T00:21:23.122Z,-12.62
2022-12-18T00:22:22.382Z,-12.62
2022-12-18T00:23:22.598Z,-12.61
2022-12-18T00:24:22.543Z,-12.53
2022-12-18T00:25:22.389Z,-12.39
2022-12-18T00:26:22.394Z,-12.19
2022-12-18T00:27:22.324Z,-11.97
2022-12-18T00:28:24.594Z,-11.74
2022-12-18T00:29:22.330Z,-11.53
2022-12-18T00:30:22.335Z,-11.43
2022-12-18T00:31:22.351Z,-11.34
2022-12-18T00:32:22.337Z,-11.28
2022-12-18T00:33:22.352Z,-11.25
2022-12-18T00:34:22.339Z,-11.24
2022-12-18T00:35:22.339Z,-11.08
2022-12-18T00:36:22.334Z,-10.96
2022-12-18T00:37:22.337Z,-10.9
2022-12-18T00:38:22.329Z,-10.85
2022-12-18T00:39:22.333Z,-10.78
2022-12-18T00:40:22.418Z,-10.73
2022-12-18T00:41:22.345Z,-10.54
2022-12-18T00:42:22.330Z,-10.37
2022-12-18T00:43:22.328Z,-10.33
2022-12-18T00:44:22.336Z,-10.28
2022-12-18T00:45:22.408Z,-10.28
2022-12-18T00:46:22.321Z,-10.28
2022-12-18T00:47:22.326Z,-10.29
2022-12-18T00:48:22.328Z,-10.33
2022-12-18T00:49:22.464Z,-10.39
2022-12-18T00:50:22.804Z,-10.37
2022-12-18T00:51:21.892Z,-10.36
2022-12-18T00:52:22.215Z,-10.27
2022-12-18T00:53:22.455Z,-10.17
2022-12-18T00:54:22.764Z,-10.14
2022-12-18T00:55:22.329Z,-10.14
2022-12-18T00:56:22.343Z,-10.13
2022-12-18T00:57:22.347Z,-10.1
2022-12-18T00:58:22.341Z,-10.08
2022-12-18T00:59:22.333Z,-10.04
2022-12-18T01:00:22.326Z,-10
2022-12-18T01:01:22.441Z,-10
2022-12-18T01:02:22.402Z,-9.96
2022-12-18T01:03:22.325Z,-9.95
2022-12-18T01:04:22.347Z,-9.95
2022-12-18T01:05:22.330Z,-9.98
2022-12-18T01:06:22.337Z,-9.96
2022-12-18T01:07:22.326Z,-9.95
2022-12-18T01:08:22.330Z,-9.83
2022-12-18T01:09:22.334Z,-9.78
2022-12-18T01:10:22.335Z,-9.61
2022-12-18T01:11:22.323Z,-9.47
2022-12-18T01:12:22.323Z,-9.05
2022-12-18T01:13:22.327Z,-8.93
2022-12-18T01:14:22.336Z,-8.76
2022-12-18T01:15:22.330Z,-8.62
2022-12-18T01:16:22.361Z,-8.61
2022-12-18T01:17:22.338Z,-8.6
2022-12-18T01:18:22.337Z,-8.64
2022-12-18T01:19:22.337Z,-8.68
2022-12-18T01:20:22.328Z,-8.78
2022-12-18T01:21:22.330Z,-8.83
2022-12-18T01:22:22.342Z,-8.87
2022-12-18T01:23:22.332Z,-8.86
2022-12-18T01:24:22.335Z,-8.87
2022-12-18T01:25:22.334Z,-8.89
2022-12-18T01:26:22.332Z,-8.85
2022-12-18T01:27:22.325Z,-8.77
2022-12-18T01:28:22.330Z,-8.74
2022-12-18T01:29:22.329Z,-8.73
2022-12-18T01:30:22.336Z,-8.76
2022-12-18T01:31:22.365Z,-8.8
2022-12-18T01:32:22.339Z,-8.74
2022-12-18T01:33:22.329Z,-8.68
2022-12-18T01:34:22.328Z,-8.57
2022-12-18T01:35:22.351Z,-8.55
2022-12-18T01:36:22.332Z,-8.57
2022-12-18T01:37:22.328Z,-8.59
2022-12-18T01:38:22.324Z,-8.65
2022-12-18T01:39:22.332Z,-8.61
2022-12-18T01:40:22.345Z,-8.59
2022-12-18T01:41:22.324Z,-8.59
2022-12-18T01:42:22.331Z,-8.61
2022-12-18T01:43:22.329Z,-8.66
2022-12-18T01:44:22.324Z,-8.71
2022-12-18T01:45:22.349Z,-8.79
2022-12-18T01:46:22.360Z,-8.94
2022-12-18T01:47:22.331Z,-9.03
2022-12-18T01:48:22.335Z,-9.12
2022-12-18T01:49:22.334Z,-9.23
2022-12-18T01:50:22.499Z,-9.3
2022-12-18T01:51:22.356Z,-9.38
2022-12-18T01:52:22.331Z,-9.47
2022-12-18T01:53:22.325Z,-9.53
2022-12-18T01:54:22.346Z,-9.59
2022-12-18T01:55:22.324Z,-9.68
2022-12-18T01:56:22.348Z,-9.74
2022-12-18T01:57:22.333Z,-9.76
2022-12-18T01:58:22.335Z,-9.8
2022-12-18T01:59:22.324Z,-9.84
2022-12-18T02:00:22.328Z,-9.86
2022-12-18T02:01:22.399Z,-9.91
2022-12-18T02:02:22.504Z,-9.85
2022-12-18T02:03:22.378Z,-9.83
2022-12-18T02:04:22.329Z,-9.84
2022-12-18T02:05:22.328Z,-9.82
2022-12-18T02:06:22.330Z,-9.85
2022-12-18T02:07:22.339Z,-9.91
2022-12-18T02:08:22.512Z,-9.92
2022-12-18T02:09:22.331Z,-9.93
2022-12-18T02:10:22.558Z,-9.94
2022-12-18T02:11:22.350Z,-9.96
2022-12-18T02:12:22.614Z,-9.87
2022-12-18T02:13:22.376Z,-9.83
2022-12-18T02:14:22.593Z,-9.81
2022-12-18T02:15:22.341Z,-9.81
2022-12-18T02:16:22.377Z,-9.83
2022-12-18T02:17:22.327Z,-9.89
2022-12-18T02:18:22.486Z,-9.95
2022-12-18T02:19:22.335Z,-9.96
2022-12-18T02:20:22.339Z,-9.98
2022-12-18T02:21:22.336Z,-9.99
2022-12-18T02:22:22.338Z,-9.98
2022-12-18T02:23:22.343Z,-10
2022-12-18T02:24:22.337Z,-10.07
2022-12-18T02:25:22.341Z,-10.1
2022-12-18T02:26:22.330Z,-10.13
2022-12-18T02:27:22.339Z,-10.13
2022-12-18T02:28:22.338Z,-10.13
2022-12-18T02:29:22.335Z,-10.1
2022-12-18T02:30:22.380Z,-10.11
2022-12-18T02:31:22.334Z,-10.13
2022-12-18T02:32:22.339Z,-10.16
2022-12-18T02:33:22.346Z,-10.2
2022-12-18T02:34:22.335Z,-10.21
2022-12-18T02:35:22.345Z,-10.16
2022-12-18T02:36:22.338Z,-10.04
2022-12-18T02:37:22.340Z,-9.87
2022-12-18T02:38:22.334Z,-9.62
2022-12-18T02:39:22.335Z,-9.38
2022-12-18T02:40:22.345Z,-9.14
2022-12-18T02:41:22.338Z,-8.97
2022-12-18T02:42:22.334Z,-8.8
2022-12-18T02:43:22.340Z,-8.56
2022-12-18T02:44:22.329Z,-8.32
2022-12-18T02:45:22.400Z,-8.07
2022-12-18T02:46:23.349Z,-7.9
2022-12-18T02:47:22.334Z,-7.76
2022-12-18T02:48:22.328Z,-7.67
2022-12-18T02:49:22.327Z,-7.59
2022-12-18T02:50:22.329Z,-7.54
2022-12-18T02:51:22.339Z,-7.44
2022-12-18T02:52:22.331Z,-7.34
2022-12-18T02:53:22.328Z,-7.17
2022-12-18T02:54:22.330Z,-6.95
2022-12-18T02:55:22.335Z,-6.76
2022-12-18T02:56:22.331Z,-6.58
2022-12-18T02:57:22.422Z,-6.47
2022-12-18T02:58:22.336Z,-6.4
2022-12-18T02:59:22.327Z,-6.36
2022-12-18T03:00:22.323Z,-6.23
2022-12-18T03:01:22.442Z,-6.16
2022-12-18T03:02:22.527Z,-6.13
2022-12-18T03:03:22.374Z,-6.1
2022-12-18T03:04:22.346Z,-6.13
2022-12-18T03:05:22.340Z,-6.19
2022-12-18T03:06:22.331Z,-6.43
2022-12-18T03:07:22.339Z,-6.53
2022-12-18T03:08:22.333Z,-6.66
2022-12-18T03:09:22.325Z,-6.84
2022-12-18T03:10:22.337Z,-7.15
2022-12-18T03:11:22.336Z,-7.35
2022-12-18T03:12:22.516Z,-7.47
2022-12-18T03:13:22.327Z,-7.58
2022-12-18T03:14:22.341Z,-7.68
2022-12-18T03:15:22.328Z,-7.73
2022-12-18T03:16:22.363Z,-7.79
2022-12-18T03:17:22.323Z,-7.86
2022-12-18T03:18:22.332Z,-7.93
2022-12-18T03:19:22.335Z,-8.02
2022-12-18T03:20:22.335Z,-8.1
2022-12-18T03:21:22.333Z,-8.17
2022-12-18T03:22:22.333Z,-8.25
2022-12-18T03:23:26.218Z,-8.37
2022-12-18T03:24:22.531Z,-8.53
2022-12-18T03:25:22.399Z,-8.68
2022-12-18T03:26:22.336Z,-8.78
2022-12-18T03:27:22.355Z,-8.88
2022-12-18T03:28:22.601Z,-8.98
2022-12-18T03:29:22.327Z,-9.08
2022-12-18T03:30:22.342Z,-9.13
2022-12-18T03:31:22.374Z,-9.15
2022-12-18T03:32:22.331Z,-9.11
2022-12-18T03:33:22.334Z,-9.08
2022-12-18T03:34:22.330Z,-9.08
2022-12-18T03:35:22.335Z,-8.98
2022-12-18T03:36:22.332Z,-8.87
2022-12-18T03:37:22.403Z,-8.84
2022-12-18T03:38:22.333Z,-8.88
2022-12-18T03:39:22.708Z,-8.91
2022-12-18T03:40:22.336Z,-8.91
2022-12-18T03:41:22.557Z,-8.89
2022-12-18T03:42:22.361Z,-8.91
2022-12-18T03:43:22.599Z,-8.88
2022-12-18T03:44:22.382Z,-8.9
2022-12-18T03:45:22.655Z,-8.92
2022-12-18T03:46:22.559Z,-8.94
2022-12-18T03:47:22.740Z,-8.92
2022-12-18T03:48:22.352Z,-8.87
2022-12-18T03:49:22.609Z,-8.78
2022-12-18T03:50:22.385Z,-8.61
2022-12-18T03:51:22.661Z,-8.48
2022-12-18T03:52:22.548Z,-8.33
2022-12-18T03:53:22.654Z,-8.29
2022-12-18T03:54:22.325Z,-8.29
2022-12-18T03:55:22.571Z,-8.34
2022-12-18T03:56:22.381Z,-8.36
2022-12-18T03:57:22.601Z,-8.15
2022-12-18T03:58:22.382Z,-8.03
2022-12-18T03:59:22.599Z,-7.96
2022-12-18T04:00:22.339Z,-7.95
2022-12-18T04:01:22.419Z,-7.97
2022-12-18T04:02:22.392Z,-8.02
2022-12-18T04:03:26.523Z,-8.07
2022-12-18T04:04:22.327Z,-8.13
2022-12-18T04:05:22.349Z,-8.13
2022-12-18T04:06:22.501Z,-8.17
2022-12-18T04:07:22.330Z,-8.23
2022-12-18T04:08:22.375Z,-8.27
2022-12-18T04:09:22.333Z,-8.23
2022-12-18T04:10:22.325Z,-8.2
2022-12-18T04:11:22.323Z,-8.15
2022-12-18T04:12:22.319Z,-8.15
2022-12-18T04:13:22.334Z,-8.15
2022-12-18T04:14:22.363Z,-8.19
2022-12-18T04:15:22.326Z,-8.24
2022-12-18T04:16:22.333Z,-8.3
2022-12-18T04:17:22.338Z,-8.4
2022-12-18T04:18:22.333Z,-8.48
2022-12-18T04:19:22.334Z,-8.57
2022-12-18T04:20:22.325Z,-8.64
2022-12-18T04:21:22.329Z,-8.65
2022-12-18T04:22:22.338Z,-8.64
2022-12-18T04:23:22.323Z,-8.65
2022-12-18T04:24:22.378Z,-8.67
2022-12-18T04:25:22.584Z,-8.7
2022-12-18T04:26:22.927Z,-8.74
2022-12-18T04:27:22.022Z,-8.77
2022-12-18T04:28:22.287Z,-8.78
2022-12-18T04:29:22.601Z,-8.8
2022-12-18T04:30:22.773Z,-8.87
2022-12-18T04:31:22.383Z,-8.94
2022-12-18T04:32:22.335Z,-9
2022-12-18T04:33:22.337Z,-9.01
2022-12-18T04:34:22.442Z,-9.04
2022-12-18T04:35:22.329Z,-9.06
2022-12-18T04:36:22.345Z,-9.04
2022-12-18T04:37:22.341Z,-9.06
2022-12-18T04:38:22.333Z,-9.09
2022-12-18T04:39:22.322Z,-9.17
2022-12-18T04:40:22.338Z,-9.19
2022-12-18T04:41:22.335Z,-9.25
2022-12-18T04:42:22.337Z,-9.31
2022-12-18T04:43:22.442Z,-9.37
2022-12-18T04:44:22.332Z,-9.43
2022-12-18T04:45:22.334Z,-9.49
2022-12-18T04:46:22.354Z,-9.5
2022-12-18T04:47:22.326Z,-9.47
2022-12-18T04:48:22.328Z,-9.47
2022-12-18T04:49:22.368Z,-9.47
2022-12-18T04:50:22.332Z,-9.46
2022-12-18T04:51:26.566Z,-9.47
2022-12-18T04:52:23.339Z,-9.52
2022-12-18T04:53:22.321Z,-9.52
2022-12-18T04:54:22.344Z,-9.59
2022-12-18T04:55:22.334Z,-9.56
2022-12-18T04:56:22.342Z,-9.55
2022-12-18T04:57:22.337Z,-9.51
2022-12-18T04:58:22.362Z,-9.51
2022-12-18T04:59:22.332Z,-9.52
2022-12-18T05:00:22.339Z,-9.51
2022-12-18T05:01:22.466Z,-9.51
2022-12-18T05:02:22.443Z,-9.54
2022-12-18T05:03:22.399Z,-9.55
2022-12-18T05:04:22.333Z,-9.55
2022-12-18T05:05:22.338Z,-9.51
2022-12-18T05:06:22.339Z,-9.49
2022-12-18T05:07:22.324Z,-9.42
2022-12-18T05:08:22.329Z,-9.24
2022-12-18T05:09:22.334Z,-9.16
2022-12-18T05:10:22.329Z,-9.13
2022-12-18T05:11:22.358Z,-9.14
2022-12-18T05:12:22.326Z,-9.12
2022-12-18T05:13:22.335Z,-9.12
2022-12-18T05:14:22.333Z,-9.14
2022-12-18T05:15:22.484Z,-9.16
2022-12-18T05:16:22.391Z,-9.17
2022-12-18T05:17:22.378Z,-9.22
2022-12-18T05:18:22.333Z,-9.22
2022-12-18T05:19:22.336Z,-9.27
2022-12-18T05:20:22.344Z,-9.34
2022-12-18T05:21:22.330Z,-9.43
2022-12-18T05:22:22.349Z,-9.51
2022-12-18T05:23:22.327Z,-9.57
2022-12-18T05:24:22.331Z,-9.61
2022-12-18T05:25:22.329Z,-9.59
2022-12-18T05:26:22.344Z,-9.61
2022-12-18T05:27:22.342Z,-9.64
2022-12-18T05:28:22.401Z,-9.67
2022-12-18T05:29:22.354Z,-9.71
2022-12-18T05:30:22.342Z,-9.7
2022-12-18T05:31:22.377Z,-9.73
2022-12-18T05:32:22.332Z,-9.76
2022-12-18T05:33:22.327Z,-9.76
2022-12-18T05:34:22.332Z,-9.75
2022-12-18T05:35:22.362Z,-9.74
2022-12-18T05:36:22.332Z,-9.75
2022-12-18T05:37:22.328Z,-9.76
2022-12-18T05:38:22.338Z,-9.78
2022-12-18T05:39:22.350Z,-9.8
2022-12-18T05:40:22.328Z,-9.8
2022-12-18T05:41:22.332Z,-9.77
2022-12-18T05:42:22.338Z,-9.77
2022-12-18T05:43:22.582Z,-9.75
2022-12-18T05:44:22.331Z,-9.73
2022-12-18T05:45:22.585Z,-9.71
2022-12-18T05:46:22.370Z,-9.67
2022-12-18T05:47:22.613Z,-9.66
2022-12-18T05:48:22.397Z,-9.64
2022-12-18T05:49:22.613Z,-9.65
2022-12-18T05:50:22.329Z,-9.64
2022-12-18T05:51:22.389Z,-9.59
2022-12-18T05:52:22.349Z,-9.57
2022-12-18T05:53:22.336Z,-9.52
2022-12-18T05:54:22.338Z,-9.47
2022-12-18T05:55:22.334Z,-9.41
2022-12-18T05:56:22.387Z,-9.34
2022-12-18T05:57:22.356Z,-9.24
2022-12-18T05:58:22.338Z,-9.14
2022-12-18T05:59:22.338Z,-8.99
2022-12-18T06:00:22.341Z,-8.88
2022-12-18T06:01:22.365Z,-8.8
2022-12-18T06:02:22.562Z,-8.78
2022-12-18T06:03:22.449Z,-8.75
2022-12-18T06:04:22.326Z,-8.76
2022-12-18T06:05:22.331Z,-8.77
2022-12-18T06:06:22.331Z,-8.8
2022-12-18T06:07:22.345Z,-8.88
2022-12-18T06:08:22.361Z,-8.94
2022-12-18T06:09:22.348Z,-8.99
2022-12-18T06:10:22.405Z,-9.08
2022-12-18T06:11:22.331Z,-9.14
2022-12-18T06:12:22.329Z,-9.19
2022-12-18T06:13:22.338Z,-9.25
2022-12-18T06:14:22.336Z,-9.29
2022-12-18T06:15:22.337Z,-9.35
2022-12-18T06:16:22.357Z,-9.42
2022-12-18T06:17:22.331Z,-9.46
2022-12-18T06:18:22.327Z,-9.53
2022-12-18T06:19:22.341Z,-9.67
2022-12-18T06:20:22.337Z,-9.73
2022-12-18T06:21:22.329Z,-9.79
2022-12-18T06:22:22.335Z,-9.86
2022-12-18T06:23:22.414Z,-9.92
2022-12-18T06:24:22.328Z,-9.94
2022-12-18T06:25:22.323Z,-9.92
2022-12-18T06:26:28.211Z,-9.91
2022-12-18T06:27:22.324Z,-9.92
2022-12-18T06:28:22.339Z,-9.97
2022-12-18T06:29:22.335Z,-10.03
2022-12-18T06:30:22.334Z,-10.05
2022-12-18T06:31:22.400Z,-9.95
2022-12-18T06:32:22.329Z,-9.87
2022-12-18T06:33:22.326Z,-9.85
2022-12-18T06:34:22.327Z,-9.86
2022-12-18T06:35:22.332Z,-9.89
2022-12-18T06:36:22.330Z,-9.94
2022-12-18T06:37:22.335Z,-9.87
2022-12-18T06:38:22.412Z,-9.81
2022-12-18T06:39:22.330Z,-9.76
2022-12-18T06:40:22.349Z,-9.73
2022-12-18T06:41:22.332Z,-9.71
2022-12-18T06:42:22.329Z,-9.69
2022-12-18T06:43:22.328Z,-9.61
2022-12-18T06:44:22.329Z,-9.58
2022-12-18T06:45:22.363Z,-9.55
2022-12-18T06:46:22.337Z,-9.54
2022-12-18T06:47:22.337Z,-9.54
2022-12-18T06:48:22.341Z,-9.55
2022-12-18T06:49:25.070Z,-9.56
2022-12-18T06:50:22.377Z,-9.53
2022-12-18T06:51:22.394Z,-9.52
2022-12-18T06:52:22.342Z,-9.52
2022-12-18T06:53:22.347Z,-9.52
2022-12-18T06:54:23.327Z,-9.54
2022-12-18T06:55:22.354Z,-9.62
2022-12-18T06:56:22.413Z,-9.66
2022-12-18T06:57:22.702Z,-9.67
2022-12-18T06:58:22.413Z,-9.72
2022-12-18T06:59:22.322Z,-9.71
2022-12-18T07:00:22.353Z,-9.69
2022-12-18T07:01:22.403Z,-9.66
2022-12-18T07:02:22.572Z,-9.56
2022-12-18T07:03:22.322Z,-9.52
2022-12-18T07:04:22.332Z,-9.5
2022-12-18T07:05:22.349Z,-9.5
2022-12-18T07:06:22.349Z,-9.47
2022-12-18T07:07:22.329Z,-9.5
2022-12-18T07:08:22.331Z,-9.54
2022-12-18T07:09:22.331Z,-9.58
2022-12-18T07:10:22.352Z,-9.64
2022-12-18T07:11:22.337Z,-9.6
2022-12-18T07:12:22.398Z,-9.56
2022-12-18T07:13:22.333Z,-9.5
2022-12-18T07:14:22.418Z,-9.46
2022-12-18T07:15:22.328Z,-9.46
2022-12-18T07:16:25.959Z,-9.48
2022-12-18T07:17:22.357Z,-9.5
2022-12-18T07:18:22.521Z,-9.54
2022-12-18T07:19:22.717Z,-9.6
2022-12-18T07:20:22.336Z,-9.64
2022-12-18T07:21:22.469Z,-9.65
2022-12-18T07:22:22.696Z,-9.63
2022-12-18T07:23:22.335Z,-9.63
2022-12-18T07:24:22.329Z,-9.62
2022-12-18T07:25:22.567Z,-9.54
2022-12-18T07:26:22.703Z,-9.5
2022-12-18T07:27:22.328Z,-9.43
2022-12-18T07:28:22.563Z,-9.41
2022-12-18T07:29:22.593Z,-9.41
2022-12-18T07:30:22.526Z,-9.42
2022-12-18T07:31:22.438Z,-9.39
2022-12-18T07:32:22.604Z,-9.37
2022-12-18T07:33:22.449Z,-9.39
2022-12-18T07:34:22.329Z,-9.42
2022-12-18T07:35:25.637Z,-9.47
2022-12-18T07:36:22.422Z,-9.45
2022-12-18T07:37:22.331Z,-9.44
2022-12-18T07:38:22.321Z,-9.46
2022-12-18T07:39:22.324Z,-9.5
2022-12-18T07:40:22.337Z,-9.54
2022-12-18T07:41:22.330Z,-9.6
2022-12-18T07:42:23.329Z,-9.61
2022-12-18T07:43:22.330Z,-9.57
2022-12-18T07:44:22.324Z,-9.44
2022-12-18T07:45:22.336Z,-9.17
2022-12-18T07:46:22.427Z,-9.05
2022-12-18T07:47:22.335Z,-8.95
2022-12-18T07:48:22.333Z,-8.9
2022-12-18T07:49:22.355Z,-8.88
2022-12-18T07:50:22.337Z,-8.89
2022-12-18T07:51:22.323Z,-8.93
2022-12-18T07:52:26.283Z,-8.96
2022-12-18T07:53:22.400Z,-9
2022-12-18T07:54:22.339Z,-9.02
2022-12-18T07:55:22.325Z,-9.05
2022-12-18T07:56:28.024Z,-9.04
2022-12-18T07:57:49.314Z,-9.01
2022-12-18T07:58:22.329Z,-8.97
2022-12-18T07:59:22.337Z,-8.93
2022-12-18T08:00:22.609Z,-8.9
2022-12-18T08:01:23.018Z,-8.84
2022-12-18T08:02:22.815Z,-8.78
2022-12-18T08:03:23.038Z,-8.72
2022-12-18T08:04:22.595Z,-8.65
2022-12-18T08:05:22.814Z,-8.63
2022-12-18T08:06:24.619Z,-8.61
2022-12-18T08:07:22.427Z,-8.57
2022-12-18T08:08:22.384Z,-8.53
2022-12-18T08:09:22.379Z,-8.49
2022-12-18T08:10:22.396Z,-8.44
2022-12-18T08:11:22.422Z,-8.41
2022-12-18T08:12:22.368Z,-8.39
2022-12-18T08:13:22.435Z,-8.4
2022-12-18T08:14:22.330Z,-8.38
2022-12-18T08:15:22.330Z,-8.34
2022-12-18T08:16:22.421Z,-8.31
2022-12-18T08:17:22.356Z,-8.29
2022-12-18T08:18:22.332Z,-8.22
2022-12-18T08:19:22.399Z,-8.16
2022-12-18T08:20:22.444Z,-8.11
2022-12-18T08:21:22.377Z,-8.08
2022-12-18T08:22:22.357Z,-8.05
2022-12-18T08:23:22.324Z,-8.04
2022-12-18T08:24:22.335Z,-8.02
2022-12-18T08:25:22.364Z,-8
2022-12-18T08:26:22.332Z,-8
2022-12-18T08:27:29.871Z,-7.97
2022-12-18T08:28:22.334Z,-7.95
2022-12-18T08:29:22.325Z,-7.94
2022-12-18T08:30:22.328Z,-7.9
2022-12-18T08:31:22.377Z,-7.86
2022-12-18T08:32:22.441Z,-7.81
2022-12-18T08:33:22.323Z,-7.77
2022-12-18T08:34:22.327Z,-7.71
2022-12-18T08:35:22.328Z,-7.68
2022-12-18T08:36:22.329Z,-7.68
2022-12-18T08:37:22.330Z,-7.61
2022-12-18T08:38:22.324Z,-7.55
2022-12-18T08:39:22.324Z,-7.51
2022-12-18T08:40:22.338Z,-7.42
2022-12-18T08:41:22.327Z,-7.32
2022-12-18T08:42:22.339Z,-7.26
2022-12-18T08:43:22.326Z,-7.19
2022-12-18T08:44:22.319Z,-7.12
2022-12-18T08:45:22.373Z,-7.11
2022-12-18T08:46:22.362Z,-7.1
2022-12-18T08:47:22.327Z,-7.15
2022-12-18T08:48:23.335Z,-7.18
2022-12-18T08:49:22.414Z,-7.22
2022-12-18T08:50:22.328Z,-7.26
2022-12-18T08:51:22.327Z,-7.24
2022-12-18T08:52:22.330Z,-7.23
2022-12-18T08:53:22.334Z,-7.21
2022-12-18T08:54:22.338Z,-7.17
2022-12-18T08:55:23.327Z,-7.12
2022-12-18T08:56:22.333Z,-7.06
2022-12-18T08:57:22.327Z,-6.99
2022-12-18T08:58:22.340Z,-6.92
2022-12-18T08:59:22.340Z,-6.86
2022-12-18T09:00:22.329Z,-6.82
2022-12-18T09:01:22.442Z,-6.76
2022-12-18T09:02:22.411Z,-6.7
2022-12-18T09:03:22.365Z,-6.64
2022-12-18T09:04:22.327Z,-6.61
2022-12-18T09:05:23.333Z,-6.55
2022-12-18T09:06:22.330Z,-6.46
2022-12-18T09:07:22.340Z,-6.38
2022-12-18T09:08:22.348Z,-6.28
2022-12-18T09:09:22.337Z,-6.19
2022-12-18T09:10:23.371Z,-6.17
2022-12-18T09:11:22.323Z,-6.1
2022-12-18T09:12:22.424Z,-6.07
2022-12-18T09:13:22.438Z,-6.02
2022-12-18T09:14:22.479Z,-5.97
2022-12-18T09:15:22.546Z,-5.87
2022-12-18T09:16:25.001Z,-5.8
2022-12-18T09:17:22.600Z,-5.74
2022-12-18T09:18:22.530Z,-5.65
2022-12-18T09:19:22.560Z,-5.62
2022-12-18T09:20:22.541Z,-5.55
2022-12-18T09:21:22.807Z,-5.5
2022-12-18T09:22:22.495Z,-5.48
2022-12-18T09:23:22.753Z,-5.48
2022-12-18T09:24:22.545Z,-5.48
2022-12-18T09:25:22.541Z,-5.49
2022-12-18T09:26:22.551Z,-5.49
2022-12-18T09:27:22.450Z,-5.45
2022-12-18T09:28:22.503Z,-5.46
2022-12-18T09:29:22.327Z,-5.46
2022-12-18T09:30:22.339Z,-5.46
2022-12-18T09:31:22.406Z,-5.45
2022-12-18T09:32:23.333Z,-5.39
2022-12-18T09:33:22.352Z,-5.37
2022-12-18T09:34:22.354Z,-5.34
2022-12-18T09:35:22.327Z,-5.28
2022-12-18T09:36:22.325Z,-5.2
2022-12-18T09:37:22.327Z,-5.15
2022-12-18T09:38:22.332Z,-5.06
2022-12-18T09:39:25.357Z,-4.99
2022-12-18T09:40:22.357Z,-4.91
2022-12-18T09:41:22.328Z,-4.9
2022-12-18T09:42:22.328Z,-4.86
2022-12-18T09:43:22.438Z,-4.86
2022-12-18T09:44:22.413Z,-4.85
2022-12-18T09:45:22.330Z,-4.8
2022-12-18T09:46:22.392Z,-4.81
2022-12-18T09:47:22.422Z,-4.77
2022-12-18T09:48:22.331Z,-4.77
2022-12-18T09:49:22.348Z,-4.79
2022-12-18T09:50:22.371Z,-4.75
2022-12-18T09:51:22.328Z,-4.79
2022-12-18T09:52:22.330Z,-4.81
2022-12-18T09:53:22.327Z,-4.79
2022-12-18T09:54:22.347Z,-4.77
2022-12-18T09:55:22.565Z,-4.77
2022-12-18T09:56:22.333Z,-4.75
2022-12-18T09:57:22.335Z,-4.76
2022-12-18T09:58:22.331Z,-4.77
2022-12-18T09:59:22.326Z,-4.77
2022-12-18T10:00:22.426Z,-4.71
2022-12-18T10:01:22.397Z,-4.68
2022-12-18T10:02:22.552Z,-4.62
2022-12-18T10:03:22.334Z,-4.58
2022-12-18T10:04:22.387Z,-4.5
2022-12-18T10:05:22.323Z,-4.41
2022-12-18T10:06:22.338Z,-4.38
2022-12-18T10:07:22.326Z,-4.29
2022-12-18T10:08:22.329Z,-4.31
2022-12-18T10:09:22.333Z,-4.22
2022-12-18T10:10:22.331Z,-4.12
2022-12-18T10:11:22.330Z,-4.09
2022-12-18T10:12:22.328Z,-4.05
2022-12-18T10:13:25.329Z,-3.99
2022-12-18T10:14:22.324Z,-3.98
2022-12-18T10:15:22.321Z,-4.03
2022-12-18T10:16:22.389Z,-3.95
2022-12-18T10:17:22.327Z,-3.82
2022-12-18T10:18:23.329Z,-3.8
2022-12-18T10:19:22.324Z,-3.75
2022-12-18T10:20:22.535Z,-3.69
2022-12-18T10:21:22.351Z,-3.6
2022-12-18T10:22:25.328Z,-3.52
2022-12-18T10:23:22.329Z,-3.46
2022-12-18T10:24:22.323Z,-3.36
2022-12-18T10:25:22.319Z,-3.3
2022-12-18T10:26:22.348Z,-3.16
2022-12-18T10:27:22.323Z,-3.07
2022-12-18T10:28:22.336Z,-3.09
2022-12-18T10:29:22.320Z,-3.07
2022-12-18T10:30:22.488Z,-3.12
2022-12-18T10:31:25.761Z,-3.05
2022-12-18T10:32:22.398Z,-2.91
2022-12-18T10:33:22.323Z,-2.85
2022-12-18T10:34:22.509Z,-2.91
2022-12-18T10:35:22.792Z,-2.95
2022-12-18T10:36:23.495Z,-2.96
2022-12-18T10:37:22.337Z,-2.91
2022-12-18T10:38:22.317Z,-2.95
2022-12-18T10:39:22.328Z,-2.93
2022-12-18T10:40:24.108Z,-2.83
2022-12-18T10:41:22.345Z,-2.72
2022-12-18T10:42:22.331Z,-2.63
2022-12-18T10:43:22.328Z,-2.65
2022-12-18T10:44:22.400Z,-2.63
2022-12-18T10:45:22.443Z,-2.64
2022-12-18T10:46:22.656Z,-2.53
2022-12-18T10:47:22.471Z,-2.5
2022-12-18T10:48:22.497Z,-2.48
2022-12-18T10:49:22.381Z,-2.52
2022-12-18T10:50:26.082Z,-2.56
2022-12-18T10:51:22.566Z,-2.66
2022-12-18T10:52:23.617Z,-2.67
2022-12-18T10:53:22.460Z,-2.61
2022-12-18T10:54:22.325Z,-2.58
2022-12-18T10:55:23.686Z,-2.58
2022-12-18T10:56:22.728Z,-2.52
2022-12-18T10:57:22.511Z,-2.54
2022-12-18T10:58:38.699Z,-2.46
2022-12-18T10:59:22.467Z,-2.44
2022-12-18T11:00:22.745Z,-2.47
2022-12-18T11:01:22.664Z,-2.6
2022-12-18T11:02:22.681Z,-2.57
2022-12-18T11:03:22.424Z,-2.54
2022-12-18T11:04:22.601Z,-2.55
2022-12-18T11:05:22.327Z,-2.6
2022-12-18T11:06:22.694Z,-2.64
2022-12-18T11:07:22.597Z,-2.68
2022-12-18T11:08:22.856Z,-2.66
2022-12-18T11:09:22.351Z,-2.6
2022-12-18T11:10:22.653Z,-2.57
2022-12-18T11:11:22.359Z,-2.58
2022-12-18T11:12:22.750Z,-2.56
2022-12-18T11:13:22.618Z,-2.53
2022-12-18T11:14:22.687Z,-2.53
2022-12-18T11:15:22.685Z,-2.51
2022-12-18T11:16:22.739Z,-2.51
2022-12-18T11:17:26.619Z,-2.46
2022-12-18T11:18:22.343Z,-2.37
2022-12-18T11:19:23.703Z,-2.27
2022-12-18T11:20:22.360Z,-2.14
2022-12-18T11:21:22.332Z,-2.17
2022-12-18T11:22:22.327Z,-2.02
2022-12-18T11:23:22.327Z,-2.03
2022-12-18T11:24:22.363Z,-2
2022-12-18T11:25:34.283Z,-1.86
2022-12-18T11:26:22.421Z,-1.83
2022-12-18T11:27:22.399Z,-1.87
2022-12-18T11:28:22.337Z,-1.81
2022-12-18T11:29:22.341Z,-1.76
2022-12-18T11:30:22.344Z,-1.63
2022-12-18T11:31:22.379Z,-1.65
2022-12-18T11:32:22.327Z,-1.58
2022-12-18T11:33:22.330Z,-1.67
2022-12-18T11:34:29.916Z,-1.71
2022-12-18T11:35:22.878Z,-1.61
2022-12-18T11:36:23.197Z,-1.66
2022-12-18T11:37:22.151Z,-1.58
2022-12-18T11:38:22.325Z,-1.58
2022-12-18T11:39:23.485Z,-1.58
2022-12-18T11:40:22.331Z,-1.52
2022-12-18T11:41:22.328Z,-1.51
2022-12-18T11:42:22.333Z,-1.52
2022-12-18T11:43:22.335Z,-1.48
2022-12-18T11:44:22.364Z,-1.41
2022-12-18T11:45:22.334Z,-1.38
2022-12-18T11:46:22.367Z,-1.43
2022-12-18T11:47:22.364Z,-1.38
2022-12-18T11:48:22.332Z,-1.45
2022-12-18T11:49:22.326Z,-1.46
2022-12-18T11:50:22.328Z,-1.47
2022-12-18T11:51:27.206Z,-1.46
2022-12-18T11:52:22.353Z,-1.55
2022-12-18T11:53:22.328Z,-1.54
2022-12-18T11:54:22.340Z,-1.51
2022-12-18T11:55:22.330Z,-1.6
2022-12-18T11:56:22.324Z,-1.64
2022-12-18T11:57:22.329Z,-1.66
2022-12-18T11:58:26.459Z,-1.69
2022-12-18T11:59:22.330Z,-1.61
2022-12-18T12:00:22.326Z,-1.54
2022-12-18T12:01:22.348Z,-1.58
2022-12-18T12:02:22.487Z,-1.61
2022-12-18T12:03:22.340Z,-1.59
2022-12-18T12:04:22.386Z,-1.51
2022-12-18T12:05:22.392Z,-1.58
2022-12-18T12:06:22.331Z,-1.61
2022-12-18T12:07:22.337Z,-1.57
2022-12-18T12:08:22.377Z,-1.58
2022-12-18T12:09:22.339Z,-1.59
2022-12-18T12:10:22.327Z,-1.56
2022-12-18T12:11:22.338Z,-1.52
2022-12-18T12:12:23.328Z,-1.57
2022-12-18T12:13:22.340Z,-1.57
2022-12-18T12:14:22.335Z,-1.55
2022-12-18T12:15:22.339Z,-1.51
2022-12-18T12:16:22.396Z,-1.54
2022-12-18T12:17:22.359Z,-1.49
2022-12-18T12:18:22.527Z,-1.46
2022-12-18T12:19:22.585Z,-1.46
2022-12-18T12:20:22.363Z,-1.48
2022-12-18T12:21:22.423Z,-1.41
2022-12-18T12:22:22.377Z,-1.49
2022-12-18T12:23:27.775Z,-1.47
2022-12-18T12:24:22.357Z,-1.48
2022-12-18T12:25:22.330Z,-1.52
2022-12-18T12:26:22.332Z,-1.56
2022-12-18T12:27:23.331Z,-1.56
2022-12-18T12:28:22.336Z,-1.58
2022-12-18T12:29:23.382Z,-1.55
2022-12-18T12:30:22.336Z,-1.54
2022-12-18T12:31:22.373Z,-1.56
2022-12-18T12:32:22.329Z,-1.54
2022-12-18T12:33:22.337Z,-1.49
2022-12-18T12:34:22.385Z,-1.43
2022-12-18T12:35:23.383Z,-1.37
2022-12-18T12:36:22.396Z,-1.37
2022-12-18T12:37:22.341Z,-1.37
2022-12-18T12:38:22.342Z,-1.3
2022-12-18T12:39:22.365Z,-1.35
2022-12-18T12:40:51.055Z,-1.4
2022-12-18T12:41:22.341Z,-1.35
2022-12-18T12:42:22.341Z,-1.34
2022-12-18T12:43:22.332Z,-1.34
2022-12-18T12:44:25.345Z,-1.41
2022-12-18T12:45:22.356Z,-1.43
2022-12-18T12:46:23.429Z,-1.41
2022-12-18T12:47:22.363Z,-1.44
2022-12-18T12:48:22.331Z,-1.41
2022-12-18T12:49:23.613Z,-1.36
2022-12-18T12:50:22.414Z,-1.39
2022-12-18T12:51:22.332Z,-1.44
2022-12-18T12:52:22.429Z,-1.44